Danville, VA

12:05 PM EDT on June 02, 2015 (GMT -0400)
Danville Regional | | Change Station
CLOSE
Current Station
Airport
Location: Danville,
Elevation: 571 ft
Nearby Weather Stations

Elev 571 ft 36.57 °N, 79.34 °W | Updated 12 minutes ago

Rain
Rain
71 °F
Feels Like 71 °F
N
4
Wind Variable Wind from SW

Today
High -- | Low -- °F
--% Chance of Precip.
Yesterday
High -- | Low -- °F
Precip. -- in
6:00 AM 8:31 PM
Full, 100% visible
Pressure 30.03 in
Visibility 7.0 miles
Clouds Mostly Cloudy 600 ft
Mostly Cloudy 7500 ft
Overcast 10000 ft
Dew Point 68 °F
Humidity 90%
Rainfall 0.03 in
Snow Depth Not available.
UV 3 out of 12
Pollen .80 out of 12
Air Quality Not available.
Flu Activity Sporadic
METAR KDAN 021553Z AUTO 22003KT 7SM -RA BKN006 BKN075 OVC100 22/20 A3006 RMK AO2 SLP168 P0002 T02170200

More Conditions Fewer Conditions

Pressure 30.03 in
Visibility 7.0 miles
Clouds Mostly Cloudy 600 ft
Mostly Cloudy 7500 ft
Overcast 10000 ft
Dew Point 68 °F
Humidity 90%
Rainfall 0.03 in
Snow Depth Not available.
UV 3 out of 12
Pollen .80 out of 12
Air Quality Not available.
Flu Activity Sporadic
METAR KDAN 021553Z AUTO 22003KT 7SM -RA BKN006 BKN075 OVC100 22/20 A3006 RMK AO2 SLP168 P0002 T02170200

More Conditions Fewer Conditions

10-Day Weather Forecast

Almanac

Astronomy

Jun. 02, 2015 Rise Set
Actual Time
Civil Twilight
Nautical Twilight
Astronomical Twilight
Moon
Length of Visible Light
Length of Day
Tomorrow will be .
, % of the Moon is Illuminated

Today's Extremes

State Highs State Lows

Community

WunderPhotos

Upload Photos

1,825,972 photos uploaded!

WunderBlogs® & News

Nearby

Air Quality

  Air Quality AQ Index Pollutant
Not available.

Snow Depth

Station Depth Elevation

Earthquake Activity

City Distance Mag. Time & Date
Minimum magnitude displayed is 2.5.

Coastal Water Temperatures

Place Temperature

Stations

Nearby Weather Stations

Station Location Temp. Windchill Dew Point Humidity Wind Precip. Elev Updated Type